sensor_id;sensor_type;location;lat;lon;timestamp;temperature;humidity
31038;DHT22;17702;47.590;7.666;2022-11-20T00:01:35;8.90;99.90
31038;DHT22;17702;47.590;7.666;2022-11-20T00:04:01;8.90;99.90
31038;DHT22;17702;47.590;7.666;2022-11-20T00:06:27;8.90;99.90
31038;DHT22;17702;47.590;7.666;2022-11-20T00:08:56;8.90;99.90
31038;DHT22;17702;47.590;7.666;2022-11-20T00:11:23;8.70;99.90
31038;DHT22;17702;47.590;7.666;2022-11-20T00:13:50;8.60;99.90
31038;DHT22;17702;47.590;7.666;2022-11-20T00:16:17;8.60;99.90
31038;DHT22;17702;47.590;7.666;2022-11-20T00:18:43;8.60;99.90
31038;DHT22;17702;47.590;7.666;2022-11-20T00:21:19;8.50;99.90
31038;DHT22;17702;47.590;7.666;2022-11-20T00:23:45;8.40;99.90
31038;DHT22;17702;47.590;7.666;2022-11-20T00:26:11;8.40;99.90
31038;DHT22;17702;47.590;7.666;2022-11-20T00:28:37;8.40;99.90
31038;DHT22;17702;47.590;7.666;2022-11-20T00:31:07;8.30;99.90
31038;DHT22;17702;47.590;7.666;2022-11-20T00:33:33;8.30;99.90
31038;DHT22;17702;47.590;7.666;2022-11-20T00:35:59;8.30;99.90
31038;DHT22;17702;47.590;7.666;2022-11-20T00:38:25;8.40;99.90
31038;DHT22;17702;47.590;7.666;2022-11-20T00:41:00;8.30;99.90
31038;DHT22;17702;47.590;7.666;2022-11-20T00:43:26;8.30;99.90
31038;DHT22;17702;47.590;7.666;2022-11-20T00:45:56;8.20;99.90
31038;DHT22;17702;47.590;7.666;2022-11-20T00:48:21;8.30;99.90
31038;DHT22;17702;47.590;7.666;2022-11-20T00:50:47;8.20;99.90
31038;DHT22;17702;47.590;7.666;2022-11-20T00:53:13;8.10;99.90
31038;DHT22;17702;47.590;7.666;2022-11-20T00:55:39;8.10;99.90
31038;DHT22;17702;47.590;7.666;2022-11-20T00:58:04;8.20;99.90
31038;DHT22;17702;47.590;7.666;2022-11-20T01:00:30;8.30;99.90
31038;DHT22;17702;47.590;7.666;2022-11-20T01:02:55;8.20;99.90
31038;DHT22;17702;47.590;7.666;2022-11-20T01:05:21;8.10;99.90
31038;DHT22;17702;47.590;7.666;2022-11-20T01:07:46;8.00;99.90
31038;DHT22;17702;47.590;7.666;2022-11-20T01:10:12;8.00;99.90
31038;DHT22;17702;47.590;7.666;2022-11-20T01:12:37;8.00;99.90
31038;DHT22;17702;47.590;7.666;2022-11-20T01:15:03;8.00;99.90
31038;DHT22;17702;47.590;7.666;2022-11-20T01:17:28;8.10;99.90
31038;DHT22;17702;47.590;7.666;2022-11-20T01:19:55;8.00;99.90
31038;DHT22;17702;47.590;7.666;2022-11-20T01:22:21;7.90;99.90
31038;DHT22;17702;47.590;7.666;2022-11-20T01:24:48;8.00;99.90
31038;DHT22;17702;47.590;7.666;2022-11-20T01:27:14;8.00;99.90
31038;DHT22;17702;47.590;7.666;2022-11-20T01:29:39;8.00;99.90
31038;DHT22;17702;47.590;7.666;2022-11-20T01:32:05;8.00;99.90
31038;DHT22;17702;47.590;7.666;2022-11-20T01:34:30;8.00;99.90
31038;DHT22;17702;47.590;7.666;2022-11-20T01:36:56;8.10;99.90
31038;DHT22;17702;47.590;7.666;2022-11-20T01:39:22;8.20;99.90
31038;DHT22;17702;47.590;7.666;2022-11-20T01:41:48;8.30;99.90
31038;DHT22;17702;47.590;7.666;2022-11-20T01:47:14;8.20;99.90
31038;DHT22;17702;47.590;7.666;2022-11-20T01:49:45;8.10;99.90
31038;DHT22;17702;47.590;7.666;2022-11-20T01:54:49;8.00;99.90
31038;DHT22;17702;47.590;7.666;2022-11-20T01:57:16;7.90;99.90
31038;DHT22;17702;47.590;7.666;2022-11-20T01:59:48;7.90;99.90
31038;DHT22;17702;47.590;7.666;2022-11-20T02:02:17;7.90;99.90
31038;DHT22;17702;47.590;7.666;2022-11-20T02:04:43;7.90;99.90
31038;DHT22;17702;47.590;7.666;2022-11-20T02:07:09;8.00;99.90
31038;DHT22;17702;47.590;7.666;2022-11-20T02:09:35;8.00;99.90
31038;DHT22;17702;47.590;7.666;2022-11-20T02:12:01;8.20;99.90
31038;DHT22;17702;47.590;7.666;2022-11-20T02:14:26;8.30;99.90
31038;DHT22;17702;47.590;7.666;2022-11-20T02:16:52;8.20;99.90
31038;DHT22;17702;47.590;7.666;2022-11-20T02:19:22;8.10;99.90
31038;DHT22;17702;47.590;7.666;2022-11-20T02:22:02;8.20;99.90
31038;DHT22;17702;47.590;7.666;2022-11-20T02:24:30;8.20;99.90
31038;DHT22;17702;47.590;7.666;2022-11-20T02:27:10;8.10;99.90
31038;DHT22;17702;47.590;7.666;2022-11-20T02:32:22;8.10;99.90
31038;DHT22;17702;47.590;7.666;2022-11-20T02:34:48;8.10;99.90
31038;DHT22;17702;47.590;7.666;2022-11-20T02:37:14;8.20;99.90
31038;DHT22;17702;47.590;7.666;2022-11-20T02:39:40;8.20;99.90
31038;DHT22;17702;47.590;7.666;2022-11-20T02:42:06;8.30;99.90
31038;DHT22;17702;47.590;7.666;2022-11-20T02:44:32;8.30;99.90
31038;DHT22;17702;47.590;7.666;2022-11-20T02:46:57;8.50;99.90
31038;DHT22;17702;47.590;7.666;2022-11-20T02:49:23;8.50;99.90
31038;DHT22;17702;47.590;7.666;2022-11-20T02:51:49;8.50;99.90
31038;DHT22;17702;47.590;7.666;2022-11-20T02:54:15;8.50;99.90
31038;DHT22;17702;47.590;7.666;2022-11-20T02:56:40;8.50;99.90
31038;DHT22;17702;47.590;7.666;2022-11-20T02:59:06;8.60;99.90
31038;DHT22;17702;47.590;7.666;2022-11-20T03:01:31;8.60;99.90
31038;DHT22;17702;47.590;7.666;2022-11-20T03:03:56;8.60;99.90
31038;DHT22;17702;47.590;7.666;2022-11-20T03:06:22;8.60;99.90
31038;DHT22;17702;47.590;7.666;2022-11-20T03:08:47;8.60;99.90
31038;DHT22;17702;47.590;7.666;2022-11-20T03:11:13;8.60;99.90
31038;DHT22;17702;47.590;7.666;2022-11-20T03:13:38;8.60;99.90
31038;DHT22;17702;47.590;7.666;2022-11-20T03:16:08;8.60;99.90
31038;DHT22;17702;47.590;7.666;2022-11-20T03:18:34;8.60;99.90
31038;DHT22;17702;47.590;7.666;2022-11-20T03:20:59;8.60;99.90
31038;DHT22;17702;47.590;7.666;2022-11-20T03:23:25;8.60;99.90
31038;DHT22;17702;47.590;7.666;2022-11-20T03:25:50;8.80;99.90
31038;DHT22;17702;47.590;7.666;2022-11-20T03:28:16;8.80;99.90
31038;DHT22;17702;47.590;7.666;2022-11-20T03:30:41;8.70;99.90
31038;DHT22;17702;47.590;7.666;2022-11-20T03:33:07;8.70;99.90
31038;DHT22;17702;47.590;7.666;2022-11-20T03:35:32;8.80;99.90
31038;DHT22;17702;47.590;7.666;2022-11-20T03:37:58;8.80;99.90
31038;DHT22;17702;47.590;7.666;2022-11-20T03:40:23;8.80;99.90
31038;DHT22;17702;47.590;7.666;2022-11-20T03:42:49;8.80;99.90
31038;DHT22;17702;47.590;7.666;2022-11-20T03:45:15;8.80;99.90
31038;DHT22;17702;47.590;7.666;2022-11-20T03:47:41;8.70;99.90
31038;DHT22;17702;47.590;7.666;2022-11-20T03:50:07;8.70;99.90
31038;DHT22;17702;47.590;7.666;2022-11-20T03:52:32;8.70;99.90
31038;DHT22;17702;47.590;7.666;2022-11-20T03:54:58;8.70;99.90
31038;DHT22;17702;47.590;7.666;2022-11-20T03:57:23;8.70;99.90
31038;DHT22;17702;47.590;7.666;2022-11-20T03:59:49;8.60;99.90
31038;DHT22;17702;47.590;7.666;2022-11-20T04:02:14;8.60;99.90
31038;DHT22;17702;47.590;7.666;2022-11-20T04:04:39;8.60;99.90
31038;DHT22;17702;47.590;7.666;2022-11-20T04:07:05;8.70;99.90
31038;DHT22;17702;47.590;7.666;2022-11-20T04:09:30;8.70;99.90
31038;DHT22;17702;47.590;7.666;2022-11-20T04:11:56;8.70;99.90
31038;DHT22;17702;47.590;7.666;2022-11-20T04:14:21;8.70;99.90
31038;DHT22;17702;47.590;7.666;2022-11-20T04:16:47;8.70;99.90
31038;DHT22;17702;47.590;7.666;2022-11-20T04:19:14;8.70;99.90
31038;DHT22;17702;47.590;7.666;2022-11-20T04:21:40;8.60;99.90
31038;DHT22;17702;47.590;7.666;2022-11-20T04:24:06;8.60;99.90
31038;DHT22;17702;47.590;7.666;2022-11-20T04:26:31;8.60;99.90
31038;DHT22;17702;47.590;7.666;2022-11-20T04:28:57;8.60;99.90
31038;DHT22;17702;47.590;7.666;2022-11-20T04:31:24;8.60;99.90
31038;DHT22;17702;47.590;7.666;2022-11-20T04:33:50;8.50;99.90
31038;DHT22;17702;47.590;7.666;2022-11-20T04:36:17;8.40;99.90
31038;DHT22;17702;47.590;7.666;2022-11-20T04:38:43;8.50;99.90
31038;DHT22;17702;47.590;7.666;2022-11-20T04:41:10;8.50;99.90
31038;DHT22;17702;47.590;7.666;2022-11-20T04:43:37;8.50;99.90
31038;DHT22;17702;47.590;7.666;2022-11-20T04:46:03;8.50;99.90
31038;DHT22;17702;47.590;7.666;2022-11-20T04:48:28;8.40;99.90
31038;DHT22;17702;47.590;7.666;2022-11-20T04:50:54;8.50;99.90
31038;DHT22;17702;47.590;7.666;2022-11-20T04:53:20;8.40;99.90
31038;DHT22;17702;47.590;7.666;2022-11-20T04:55:46;8.40;99.90
31038;DHT22;17702;47.590;7.666;2022-11-20T04:58:11;8.30;99.90
31038;DHT22;17702;47.590;7.666;2022-11-20T05:00:37;8.30;99.90
31038;DHT22;17702;47.590;7.666;2022-11-20T05:03:03;8.30;99.90
31038;DHT22;17702;47.590;7.666;2022-11-20T05:05:28;8.40;99.90
31038;DHT22;17702;47.590;7.666;2022-11-20T05:07:57;8.30;99.90
31038;DHT22;17702;47.590;7.666;2022-11-20T05:10:23;8.30;99.90
31038;DHT22;17702;47.590;7.666;2022-11-20T05:12:49;8.30;99.90
31038;DHT22;17702;47.590;7.666;2022-11-20T05:15:14;8.30;99.90
31038;DHT22;17702;47.590;7.666;2022-11-20T05:17:40;8.30;99.90
31038;DHT22;17702;47.590;7.666;2022-11-20T05:20:05;8.30;99.90
31038;DHT22;17702;47.590;7.666;2022-11-20T05:22:31;8.20;99.90
31038;DHT22;17702;47.590;7.666;2022-11-20T05:24:56;8.20;99.90
31038;DHT22;17702;47.590;7.666;2022-11-20T05:27:22;8.20;99.90
31038;DHT22;17702;47.590;7.666;2022-11-20T05:29:47;8.30;99.90
31038;DHT22;17702;47.590;7.666;2022-11-20T05:32:13;8.30;99.90
31038;DHT22;17702;47.590;7.666;2022-11-20T05:34:38;8.30;99.90
31038;DHT22;17702;47.590;7.666;2022-11-20T05:37:03;8.30;99.90
31038;DHT22;17702;47.590;7.666;2022-11-20T05:39:29;8.40;99.90
31038;DHT22;17702;47.590;7.666;2022-11-20T05:41:54;8.40;99.90
31038;DHT22;17702;47.590;7.666;2022-11-20T05:44:39;8.40;99.90
31038;DHT22;17702;47.590;7.666;2022-11-20T05:47:05;8.40;99.90
31038;DHT22;17702;47.590;7.666;2022-11-20T05:49:31;8.40;99.90
31038;DHT22;17702;47.590;7.666;2022-11-20T05:51:56;8.40;99.90
31038;DHT22;17702;47.590;7.666;2022-11-20T05:54:22;8.50;99.90
31038;DHT22;17702;47.590;7.666;2022-11-20T05:56:47;8.50;99.90
31038;DHT22;17702;47.590;7.666;2022-11-20T05:59:12;8.40;99.90
31038;DHT22;17702;47.590;7.666;2022-11-20T06:01:38;8.40;99.90
31038;DHT22;17702;47.590;7.666;2022-11-20T06:04:04;8.50;99.90
31038;DHT22;17702;47.590;7.666;2022-11-20T06:06:29;8.50;99.90
31038;DHT22;17702;47.590;7.666;2022-11-20T06:08:55;8.50;99.90
31038;DHT22;17702;47.590;7.666;2022-11-20T06:11:20;8.50;99.90
31038;DHT22;17702;47.590;7.666;2022-11-20T06:13:46;8.50;99.90
31038;DHT22;17702;47.590;7.666;2022-11-20T06:16:13;8.50;99.90
31038;DHT22;17702;47.590;7.666;2022-11-20T06:18:39;8.50;99.90
31038;DHT22;17702;47.590;7.666;2022-11-20T06:21:08;8.50;99.90
31038;DHT22;17702;47.590;7.666;2022-11-20T06:23:34;8.50;99.90
31038;DHT22;17702;47.590;7.666;2022-11-20T06:28:28;8.60;99.90
31038;DHT22;17702;47.590;7.666;2022-11-20T06:30:54;8.50;99.90
31038;DHT22;17702;47.590;7.666;2022-11-20T06:33:19;8.50;99.90
31038;DHT22;17702;47.590;7.666;2022-11-20T06:35:45;8.50;99.90
31038;DHT22;17702;47.590;7.666;2022-11-20T06:38:10;8.50;99.90
31038;DHT22;17702;47.590;7.666;2022-11-20T06:40:39;8.60;99.90
31038;DHT22;17702;47.590;7.666;2022-11-20T06:43:04;8.60;99.90
31038;DHT22;17702;47.590;7.666;2022-11-20T06:45:30;8.60;99.90
31038;DHT22;17702;47.590;7.666;2022-11-20T06:47:56;8.50;99.90
31038;DHT22;17702;47.590;7.666;2022-11-20T06:50:22;8.60;99.90
31038;DHT22;17702;47.590;7.666;2022-11-20T06:52:47;8.60;99.90
31038;DHT22;17702;47.590;7.666;2022-11-20T06:55:13;8.60;99.90
31038;DHT22;17702;47.590;7.666;2022-11-20T06:57:38;8.60;99.90
31038;DHT22;17702;47.590;7.666;2022-11-20T07:00:04;8.60;99.90
31038;DHT22;17702;47.590;7.666;2022-11-20T07:02:30;8.70;99.90
31038;DHT22;17702;47.590;7.666;2022-11-20T07:04:55;8.60;99.90
31038;DHT22;17702;47.590;7.666;2022-11-20T07:07:20;8.60;99.90
31038;DHT22;17702;47.590;7.666;2022-11-20T07:09:46;8.60;99.90
31038;DHT22;17702;47.590;7.666;2022-11-20T07:12:11;8.60;99.90
31038;DHT22;17702;47.590;7.666;2022-11-20T07:14:37;8.50;99.90
31038;DHT22;17702;47.590;7.666;2022-11-20T07:17:02;8.50;99.90
31038;DHT22;17702;47.590;7.666;2022-11-20T07:19:28;8.60;99.90
31038;DHT22;17702;47.590;7.666;2022-11-20T07:21:53;8.70;99.90
31038;DHT22;17702;47.590;7.666;2022-11-20T07:24:19;8.70;99.90
31038;DHT22;17702;47.590;7.666;2022-11-20T07:26:47;8.80;99.90
31038;DHT22;17702;47.590;7.666;2022-11-20T07:29:14;8.70;99.90
31038;DHT22;17702;47.590;7.666;2022-11-20T07:31:40;8.70;99.90
31038;DHT22;17702;47.590;7.666;2022-11-20T07:34:06;8.80;99.90
31038;DHT22;17702;47.590;7.666;2022-11-20T07:36:31;8.80;99.90
31038;DHT22;17702;47.590;7.666;2022-11-20T07:38:57;8.90;99.60
31038;DHT22;17702;47.590;7.666;2022-11-20T07:41:23;8.80;99.80
31038;DHT22;17702;47.590;7.666;2022-11-20T07:43:48;8.80;99.90
31038;DHT22;17702;47.590;7.666;2022-11-20T07:46:13;8.90;99.70
31038;DHT22;17702;47.590;7.666;2022-11-20T07:48:39;8.90;99.90
31038;DHT22;17702;47.590;7.666;2022-11-20T07:51:05;8.90;99.30
31038;DHT22;17702;47.590;7.666;2022-11-20T07:53:30;8.90;99.90
31038;DHT22;17702;47.590;7.666;2022-11-20T07:55:59;8.90;99.90
31038;DHT22;17702;47.590;7.666;2022-11-20T07:58:24;9.00;99.90
31038;DHT22;17702;47.590;7.666;2022-11-20T08:00:49;8.90;99.70
31038;DHT22;17702;47.590;7.666;2022-11-20T08:03:15;8.90;99.00
31038;DHT22;17702;47.590;7.666;2022-11-20T08:05:40;8.90;99.60
31038;DHT22;17702;47.590;7.666;2022-11-20T08:08:06;9.00;98.80
31038;DHT22;17702;47.590;7.666;2022-11-20T08:10:33;8.90;99.50
31038;DHT22;17702;47.590;7.666;2022-11-20T08:12:58;9.00;98.50
31038;DHT22;17702;47.590;7.666;2022-11-20T08:15:46;9.00;99.90
31038;DHT22;17702;47.590;7.666;2022-11-20T08:18:12;8.90;99.90
31038;DHT22;17702;47.590;7.666;2022-11-20T08:20:38;9.00;99.10
31038;DHT22;17702;47.590;7.666;2022-11-20T08:23:04;9.00;99.90
31038;DHT22;17702;47.590;7.666;2022-11-20T08:25:31;9.10;98.30
31038;DHT22;17702;47.590;7.666;2022-11-20T08:28:14;9.10;99.40
31038;DHT22;17702;47.590;7.666;2022-11-20T08:30:40;9.10;99.00
31038;DHT22;17702;47.590;7.666;2022-11-20T08:33:06;9.00;99.00
31038;DHT22;17702;47.590;7.666;2022-11-20T08:35:33;9.00;99.50
31038;DHT22;17702;47.590;7.666;2022-11-20T08:38:00;9.00;98.90
31038;DHT22;17702;47.590;7.666;2022-11-20T08:40:25;9.00;99.10
31038;DHT22;17702;47.590;7.666;2022-11-20T08:42:51;8.90;99.20
31038;DHT22;17702;47.590;7.666;2022-11-20T08:45:17;9.00;99.50
31038;DHT22;17702;47.590;7.666;2022-11-20T08:47:43;9.00;99.60
31038;DHT22;17702;47.590;7.666;2022-11-20T08:50:12;9.00;99.80
31038;DHT22;17702;47.590;7.666;2022-11-20T08:52:38;9.00;99.80
31038;DHT22;17702;47.590;7.666;2022-11-20T08:55:04;9.10;99.50
31038;DHT22;17702;47.590;7.666;2022-11-20T08:57:33;9.10;99.70
31038;DHT22;17702;47.590;7.666;2022-11-20T08:59:58;9.20;99.90
31038;DHT22;17702;47.590;7.666;2022-11-20T09:02:24;9.20;99.90
31038;DHT22;17702;47.590;7.666;2022-11-20T09:04:49;9.50;99.90
31038;DHT22;17702;47.590;7.666;2022-11-20T09:07:15;10.10;99.90
31038;DHT22;17702;47.590;7.666;2022-11-20T09:09:40;10.50;99.90
31038;DHT22;17702;47.590;7.666;2022-11-20T09:12:06;10.90;99.90
31038;DHT22;17702;47.590;7.666;2022-11-20T09:14:31;11.40;99.90
31038;DHT22;17702;47.590;7.666;2022-11-20T09:16:57;11.60;99.90
31038;DHT22;17702;47.590;7.666;2022-11-20T09:19:25;11.90;99.90
31038;DHT22;17702;47.590;7.666;2022-11-20T09:21:51;12.20;99.90
31038;DHT22;17702;47.590;7.666;2022-11-20T09:24:16;12.30;99.90
31038;DHT22;17702;47.590;7.666;2022-11-20T09:26:42;12.30;97.10
31038;DHT22;17702;47.590;7.666;2022-11-20T09:29:07;12.20;97.50
31038;DHT22;17702;47.590;7.666;2022-11-20T09:31:33;12.40;97.20
31038;DHT22;17702;47.590;7.666;2022-11-20T09:33:58;12.40;91.40
31038;DHT22;17702;47.590;7.666;2022-11-20T09:36:24;11.80;93.70
31038;DHT22;17702;47.590;7.666;2022-11-20T09:38:49;11.50;94.00
31038;DHT22;17702;47.590;7.666;2022-11-20T09:43:49;10.90;96.40
31038;DHT22;17702;47.590;7.666;2022-11-20T09:56:36;10.30;95.40
31038;DHT22;17702;47.590;7.666;2022-11-20T09:59:04;10.10;97.60
31038;DHT22;17702;47.590;7.666;2022-11-20T10:01:31;10.10;96.80
31038;DHT22;17702;47.590;7.666;2022-11-20T10:06:44;10.00;98.00
31038;DHT22;17702;47.590;7.666;2022-11-20T10:16:56;10.00;97.90
31038;DHT22;17702;47.590;7.666;2022-11-20T10:22:35;10.10;96.80
31038;DHT22;17702;47.590;7.666;2022-11-20T10:24:42;10.10;97.10
31038;DHT22;17702;47.590;7.666;2022-11-20T10:29:41;10.00;96.20
31038;DHT22;17702;47.590;7.666;2022-11-20T10:32:14;10.00;96.40
31038;DHT22;17702;47.590;7.666;2022-11-20T10:34:54;10.00;96.70
31038;DHT22;17702;47.590;7.666;2022-11-20T10:37:23;9.90;96.20
31038;DHT22;17702;47.590;7.666;2022-11-20T10:42:43;9.90;97.30
31038;DHT22;17702;47.590;7.666;2022-11-20T10:45:13;10.00;97.90
31038;DHT22;17702;47.590;7.666;2022-11-20T10:47:40;10.00;96.20
31038;DHT22;17702;47.590;7.666;2022-11-20T10:50:08;10.00;97.40
31038;DHT22;17702;47.590;7.666;2022-11-20T10:57:57;10.10;97.60
31038;DHT22;17702;47.590;7.666;2022-11-20T11:00:26;10.20;96.50
31038;DHT22;17702;47.590;7.666;2022-11-20T11:02:54;10.30;96.60
31038;DHT22;17702;47.590;7.666;2022-11-20T11:08:00;10.30;95.80
31038;DHT22;17702;47.590;7.666;2022-11-20T11:10:29;10.30;96.30
31038;DHT22;17702;47.590;7.666;2022-11-20T11:12:57;10.40;96.90
31038;DHT22;17702;47.590;7.666;2022-11-20T11:17:51;10.50;95.80
31038;DHT22;17702;47.590;7.666;2022-11-20T11:20:17;10.50;95.80
31038;DHT22;17702;47.590;7.666;2022-11-20T11:22:44;10.50;94.80
31038;DHT22;17702;47.590;7.666;2022-11-20T11:25:29;10.50;94.30
31038;DHT22;17702;47.590;7.666;2022-11-20T11:27:57;10.50;94.10
31038;DHT22;17702;47.590;7.666;2022-11-20T11:30:23;10.50;94.30
31038;DHT22;17702;47.590;7.666;2022-11-20T11:32:49;10.50;95.20
31038;DHT22;17702;47.590;7.666;2022-11-20T11:35:27;10.60;95.80
31038;DHT22;17702;47.590;7.666;2022-11-20T11:38:11;10.50;96.40
31038;DHT22;17702;47.590;7.666;2022-11-20T11:40:38;10.60;96.60
31038;DHT22;17702;47.590;7.666;2022-11-20T11:43:15;10.60;96.90
31038;DHT22;17702;47.590;7.666;2022-11-20T11:46:02;10.50;97.00
31038;DHT22;17702;47.590;7.666;2022-11-20T11:48:27;10.60;94.60
31038;DHT22;17702;47.590;7.666;2022-11-20T11:50:53;10.50;92.40
31038;DHT22;17702;47.590;7.666;2022-11-20T11:53:19;10.60;90.40
31038;DHT22;17702;47.590;7.666;2022-11-20T11:56:03;10.60;90.90
31038;DHT22;17702;47.590;7.666;2022-11-20T11:58:34;10.60;90.60
31038;DHT22;17702;47.590;7.666;2022-11-20T12:01:15;10.70;90.40
31038;DHT22;17702;47.590;7.666;2022-11-20T12:03:50;10.80;90.60
31038;DHT22;17702;47.590;7.666;2022-11-20T12:06:18;10.80;90.10
31038;DHT22;17702;47.590;7.666;2022-11-20T12:11:16;10.90;90.00
31038;DHT22;17702;47.590;7.666;2022-11-20T12:16:13;10.90;91.20
31038;DHT22;17702;47.590;7.666;2022-11-20T12:18:39;11.00;90.90
31038;DHT22;17702;47.590;7.666;2022-11-20T12:26:00;11.20;89.30
31038;DHT22;17702;47.590;7.666;2022-11-20T12:28:34;11.20;89.20
31038;DHT22;17702;47.590;7.666;2022-11-20T12:33:35;11.50;89.70
31038;DHT22;17702;47.590;7.666;2022-11-20T12:49:57;11.80;90.50
31038;DHT22;17702;47.590;7.666;2022-11-20T13:00:18;11.50;91.20
31038;DHT22;17702;47.590;7.666;2022-11-20T13:07:51;11.40;91.60
31038;DHT22;17702;47.590;7.666;2022-11-20T13:10:37;11.30;90.60
31038;DHT22;17702;47.590;7.666;2022-11-20T13:15:55;11.20;91.70
31038;DHT22;17702;47.590;7.666;2022-11-20T13:18:23;11.10;91.70
31038;DHT22;17702;47.590;7.666;2022-11-20T13:20:49;11.10;92.00
31038;DHT22;17702;47.590;7.666;2022-11-20T13:23:22;11.00;92.20
31038;DHT22;17702;47.590;7.666;2022-11-20T13:25:48;11.00;92.50
31038;DHT22;17702;47.590;7.666;2022-11-20T13:30:53;10.90;92.90
31038;DHT22;17702;47.590;7.666;2022-11-20T13:33:23;10.90;92.20
31038;DHT22;17702;47.590;7.666;2022-11-20T13:36:00;10.90;93.70
31038;DHT22;17702;47.590;7.666;2022-11-20T13:38:26;10.90;92.80
31038;DHT22;17702;47.590;7.666;2022-11-20T13:46:05;10.90;93.20
31038;DHT22;17702;47.590;7.666;2022-11-20T13:48:32;10.80;93.20
31038;DHT22;17702;47.590;7.666;2022-11-20T13:53:28;10.90;91.90
31038;DHT22;17702;47.590;7.666;2022-11-20T13:56:08;10.90;90.80
31038;DHT22;17702;47.590;7.666;2022-11-20T13:58:44;10.90;92.10
31038;DHT22;17702;47.590;7.666;2022-11-20T14:01:46;10.90;92.70
31038;DHT22;17702;47.590;7.666;2022-11-20T14:04:08;10.90;93.20
31038;DHT22;17702;47.590;7.666;2022-11-20T14:06:39;10.90;92.20
31038;DHT22;17702;47.590;7.666;2022-11-20T14:09:10;10.90;91.80
31038;DHT22;17702;47.590;7.666;2022-11-20T14:11:35;10.90;91.20
31038;DHT22;17702;47.590;7.666;2022-11-20T14:14:10;10.90;91.40
31038;DHT22;17702;47.590;7.666;2022-11-20T14:16:38;10.90;91.60
31038;DHT22;17702;47.590;7.666;2022-11-20T14:21:41;10.90;90.90
31038;DHT22;17702;47.590;7.666;2022-11-20T14:24:09;10.90;91.10
31038;DHT22;17702;47.590;7.666;2022-11-20T14:26:35;10.80;91.40
31038;DHT22;17702;47.590;7.666;2022-11-20T14:29:02;10.70;92.20
31038;DHT22;17702;47.590;7.666;2022-11-20T14:31:28;10.70;91.40
31038;DHT22;17702;47.590;7.666;2022-11-20T14:33:54;10.60;92.80
31038;DHT22;17702;47.590;7.666;2022-11-20T14:36:20;10.60;93.10
31038;DHT22;17702;47.590;7.666;2022-11-20T14:38:46;10.60;93.80
31038;DHT22;17702;47.590;7.666;2022-11-20T14:41:19;10.50;94.90
31038;DHT22;17702;47.590;7.666;2022-11-20T14:43:45;10.50;94.60
31038;DHT22;17702;47.590;7.666;2022-11-20T14:46:11;10.50;93.30
31038;DHT22;17702;47.590;7.666;2022-11-20T14:48:39;10.60;94.30
31038;DHT22;17702;47.590;7.666;2022-11-20T14:51:08;10.60;94.90
31038;DHT22;17702;47.590;7.666;2022-11-20T14:53:34;10.70;93.60
31038;DHT22;17702;47.590;7.666;2022-11-20T14:56:00;10.70;93.20
31038;DHT22;17702;47.590;7.666;2022-11-20T14:58:27;10.70;92.80
31038;DHT22;17702;47.590;7.666;2022-11-20T15:00:56;10.60;94.90
31038;DHT22;17702;47.590;7.666;2022-11-20T15:03:22;10.60;94.30
31038;DHT22;17702;47.590;7.666;2022-11-20T15:05:48;10.60;94.40
31038;DHT22;17702;47.590;7.666;2022-11-20T15:08:14;10.50;94.80
31038;DHT22;17702;47.590;7.666;2022-11-20T15:10:50;10.40;95.70
31038;DHT22;17702;47.590;7.666;2022-11-20T15:13:37;10.30;95.90
31038;DHT22;17702;47.590;7.666;2022-11-20T15:16:02;10.30;96.50
31038;DHT22;17702;47.590;7.666;2022-11-20T15:18:28;10.20;97.30
31038;DHT22;17702;47.590;7.666;2022-11-20T15:20:55;10.10;97.50
31038;DHT22;17702;47.590;7.666;2022-11-20T15:23:22;10.10;98.80
31038;DHT22;17702;47.590;7.666;2022-11-20T15:25:48;10.00;99.20
31038;DHT22;17702;47.590;7.666;2022-11-20T15:28:26;9.90;99.30
31038;DHT22;17702;47.590;7.666;2022-11-20T15:30:52;9.80;99.90
31038;DHT22;17702;47.590;7.666;2022-11-20T15:33:18;9.80;99.90
31038;DHT22;17702;47.590;7.666;2022-11-20T15:35:44;9.80;99.60
31038;DHT22;17702;47.590;7.666;2022-11-20T15:38:09;9.70;99.90
31038;DHT22;17702;47.590;7.666;2022-11-20T15:40:35;9.70;99.90
31038;DHT22;17702;47.590;7.666;2022-11-20T15:43:01;9.70;99.90
31038;DHT22;17702;47.590;7.666;2022-11-20T15:45:40;9.70;99.70
31038;DHT22;17702;47.590;7.666;2022-11-20T15:48:13;9.70;99.40
31038;DHT22;17702;47.590;7.666;2022-11-20T15:50:43;9.70;99.20
31038;DHT22;17702;47.590;7.666;2022-11-20T15:53:11;9.60;99.70
31038;DHT22;17702;47.590;7.666;2022-11-20T15:55:37;9.60;99.90
31038;DHT22;17702;47.590;7.666;2022-11-20T15:58:02;9.60;99.60
31038;DHT22;17702;47.590;7.666;2022-11-20T16:00:28;9.40;99.90
31038;DHT22;17702;47.590;7.666;2022-11-20T16:02:53;9.50;99.90
31038;DHT22;17702;47.590;7.666;2022-11-20T16:05:19;9.50;99.90
31038;DHT22;17702;47.590;7.666;2022-11-20T16:07:44;9.40;99.90
31038;DHT22;17702;47.590;7.666;2022-11-20T16:10:10;9.50;99.90
31038;DHT22;17702;47.590;7.666;2022-11-20T16:12:35;9.30;99.90
31038;DHT22;17702;47.590;7.666;2022-11-20T16:15:19;9.20;99.90
31038;DHT22;17702;47.590;7.666;2022-11-20T16:18:04;9.10;99.90
31038;DHT22;17702;47.590;7.666;2022-11-20T16:20:29;9.10;99.90
31038;DHT22;17702;47.590;7.666;2022-11-20T16:22:54;9.30;99.90
31038;DHT22;17702;47.590;7.666;2022-11-20T16:25:20;9.20;99.90
31038;DHT22;17702;47.590;7.666;2022-11-20T16:27:46;9.10;99.90
31038;DHT22;17702;47.590;7.666;2022-11-20T16:30:11;9.20;99.90
31038;DHT22;17702;47.590;7.666;2022-11-20T16:32:37;9.20;99.90
31038;DHT22;17702;47.590;7.666;2022-11-20T16:35:04;9.10;99.90
31038;DHT22;17702;47.590;7.666;2022-11-20T16:37:29;9.10;99.90
31038;DHT22;17702;47.590;7.666;2022-11-20T16:39:55;9.00;99.90
31038;DHT22;17702;47.590;7.666;2022-11-20T16:42:21;8.90;99.90
31038;DHT22;17702;47.590;7.666;2022-11-20T16:44:47;8.90;99.90
31038;DHT22;17702;47.590;7.666;2022-11-20T16:47:12;9.00;99.90
31038;DHT22;17702;47.590;7.666;2022-11-20T16:49:38;9.10;99.90
31038;DHT22;17702;47.590;7.666;2022-11-20T16:52:04;9.10;99.90
31038;DHT22;17702;47.590;7.666;2022-11-20T16:54:29;9.00;99.90
31038;DHT22;17702;47.590;7.666;2022-11-20T16:56:54;9.00;99.90
31038;DHT22;17702;47.590;7.666;2022-11-20T16:59:20;9.10;99.90
31038;DHT22;17702;47.590;7.666;2022-11-20T17:01:45;9.10;99.90
31038;DHT22;17702;47.590;7.666;2022-11-20T17:04:11;9.10;99.90
31038;DHT22;17702;47.590;7.666;2022-11-20T17:06:37;9.10;99.90
31038;DHT22;17702;47.590;7.666;2022-11-20T17:09:05;9.10;99.90
31038;DHT22;17702;47.590;7.666;2022-11-20T17:11:33;9.10;99.90
31038;DHT22;17702;47.590;7.666;2022-11-20T17:13:59;9.20;99.90
31038;DHT22;17702;47.590;7.666;2022-11-20T17:16:25;9.20;99.90
31038;DHT22;17702;47.590;7.666;2022-11-20T17:18:52;9.20;99.90
31038;DHT22;17702;47.590;7.666;2022-11-20T17:21:18;9.30;99.90
31038;DHT22;17702;47.590;7.666;2022-11-20T17:23:44;9.40;99.90
31038;DHT22;17702;47.590;7.666;2022-11-20T17:26:11;9.40;99.90
31038;DHT22;17702;47.590;7.666;2022-11-20T17:28:38;9.40;99.90
31038;DHT22;17702;47.590;7.666;2022-11-20T17:31:09;9.40;99.00